Time;durP1;ratioP1;P1;durP2;ratioP2;P2;SDS_P1;SDS_P2;PMS_P1;PMS_P2;Temp;Humidity;BMP_temperature;BMP_pressure;BME280_temperature;BME280_humidity;BME280_pressure;Samples;Min_cycle;Max_cycle;Signal;HPM_P1;HPM_P2
2022/01/23 00:01:13;;;;;;;1.35;1.08;;;;;;;19.48;32.10;102167.75;4230462;28;20435;-47
2022/01/23 00:03:18;;;;;;;1.77;1.30;;;;;;;19.51;31.94;102176.44;4229941;28;20031;-46
2022/01/23 00:05:35;;;;;;;1.52;1.02;;;;;;;19.50;32.00;102165.56;4230338;28;20479;-46
2022/01/23 00:07:39;;;;;;;1.80;1.20;;;;;;;19.49;32.23;102163.88;4228645;28;20039;-47
2022/01/23 00:09:41;;;;;;;1.27;1.00;;;;;;;19.49;32.22;102158.34;4232006;28;20437;-45
2022/01/23 00:11:50;;;;;;;1.52;1.10;;;;;;;19.52;32.24;102158.69;4232279;28;20093;-46
2022/01/23 00:18:18;;;;;;;1.25;0.98;;;;;;;19.52;32.13;102152.31;4233452;28;20536;-49
2022/01/23 00:20:20;;;;;;;1.90;1.20;;;;;;;18.93;32.16;102065.44;4232834;28;20093;-44
2022/01/23 00:22:39;;;;;;;1.30;1.00;;;;;;;19.51;31.98;102153.38;4233321;28;20478;-50
2022/01/23 00:31:41;;;;;;;1.77;1.08;;;;;;;19.53;32.21;102162.31;4233519;28;20416;-47
2022/01/23 00:33:42;;;;;;;1.10;0.90;;;;;;;19.53;32.22;102163.16;4233013;28;20035;-48
2022/01/23 00:35:54;;;;;;;2.00;1.13;;;;;;;19.52;32.07;102157.88;4233139;28;20433;-45
2022/01/23 00:37:56;;;;;;;1.70;1.00;;;;;;;19.53;32.22;102145.66;4232931;27;20039;-49
2022/01/23 00:39:57;;;;;;;0.80;0.80;;;;;;;19.51;32.44;102147.81;4232300;28;20096;-44
2022/01/23 00:41:59;;;;;;;1.70;1.10;;;;;;;19.50;32.54;102146.97;4232281;28;20192;-48
2022/01/23 00:44:01;;;;;;;2.50;2.03;;;;;;;19.50;32.26;102154.47;4232686;28;20048;-48
2022/01/23 00:46:23;;;;;;;1.52;1.10;;;;;;;19.51;32.34;102145.88;4233202;28;20031;-47
2022/01/23 00:48:29;;;;;;;1.40;1.00;;;;;;;19.52;32.53;102146.75;4232981;28;20105;-46
2022/01/23 00:50:39;;;;;;;0.93;0.80;;;;;;;19.44;32.37;102144.34;4231434;28;20384;-46
2022/01/23 00:52:41;;;;;;;2.17;1.30;;;;;;;19.51;32.49;102150.59;4213689;28;20098;-48
2022/01/23 00:54:42;;;;;;;2.33;1.00;;;;;;;19.50;32.50;102149.75;4232799;28;20047;-45
2022/01/23 00:56:43;;;;;;;1.55;1.27;;;;;;;19.52;32.65;102146.75;4232181;28;20047;-50
2022/01/23 00:58:45;;;;;;;1.15;0.98;;;;;;;19.50;32.17;102140.59;4232340;28;20039;-48
2022/01/23 01:00:46;;;;;;;2.38;1.25;;;;;;;19.51;32.38;102131.16;4232870;28;20348;-49
2022/01/23 01:02:48;;;;;;;1.63;1.10;;;;;;;19.46;32.43;102119.94;4232419;28;20470;-49
2022/01/23 01:04:50;;;;;;;1.88;1.00;;;;;;;19.50;32.69;102126.72;4232105;28;20101;-49
2022/01/23 01:06:52;;;;;;;0.95;0.82;;;;;;;19.49;32.55;102122.25;4232237;28;20089;-49
2022/01/23 01:09:00;;;;;;;1.88;1.17;;;;;;;19.43;32.28;102114.91;4231331;28;20069;-48
2022/01/23 01:13:29;;;;;;;0.70;0.70;;;;;;;19.49;32.40;102125.03;4232583;28;20104;-45
2022/01/23 01:15:41;;;;;;;1.30;0.93;;;;;;;19.50;32.56;102126.72;4232557;28;20413;-46
2022/01/23 01:31:38;;;;;;;2.15;1.20;;;;;;;19.47;32.20;102082.75;4232387;28;20136;-48
2022/01/23 01:35:49;;;;;;;1.52;1.15;;;;;;;19.46;32.19;102086.63;4232473;28;20028;-45
2022/01/23 01:37:52;;;;;;;2.47;1.33;;;;;;;19.48;32.47;102081.69;4232170;28;20040;-49
2022/01/23 01:39:53;;;;;;;1.48;1.10;;;;;;;19.46;32.23;102076.38;4231948;28;20035;-48
2022/01/23 01:42:11;;;;;;;1.55;1.30;;;;;;;19.42;32.47;102066.00;4231421;28;20035;-48
2022/01/23 01:44:13;;;;;;;1.27;1.15;;;;;;;19.47;32.28;102071.66;4228212;28;20097;-47
2022/01/23 01:46:15;;;;;;;1.60;1.15;;;;;;;19.45;32.13;102068.28;4232197;28;20028;-46
2022/01/23 01:48:22;;;;;;;1.50;1.13;;;;;;;19.44;32.46;102075.78;4231355;28;20108;-51
2022/01/23 01:50:24;;;;;;;2.85;1.40;;;;;;;19.45;32.10;102069.13;4230445;28;20047;-48
2022/01/23 01:52:25;;;;;;;1.15;1.05;;;;;;;19.45;32.19;102076.63;4232009;28;20073;-49
2022/01/23 01:54:30;;;;;;;1.52;1.05;;;;;;;19.45;32.36;102084.94;4231499;28;20109;-49
2022/01/23 01:56:39;;;;;;;1.60;1.15;;;;;;;19.45;32.22;102079.41;4231864;28;20031;-44
2022/01/23 02:00:47;;;;;;;1.45;1.02;;;;;;;19.46;31.95;102081.09;4231890;28;20114;-47
2022/01/23 02:09:43;;;;;;;1.65;1.10;;;;;;;19.42;31.96;102066.00;4231995;28;20076;-47
2022/01/23 02:12:12;;;;;;;1.42;1.10;;;;;;;19.42;32.28;102064.06;4230621;28;20040;-48
2022/01/23 02:16:52;;;;;;;1.83;1.40;;;;;;;19.40;32.60;102068.19;4232463;28;20076;-47
2022/01/23 02:52:13;;;;;;;2.75;1.55;;;;;;;19.51;30.99;102007.06;4231389;28;20421;-48
2022/01/23 02:56:01;;;;;;;2.25;1.55;;;;;;;19.09;31.31;101925.16;4232051;28;20092;-45
2022/01/23 02:58:05;;;;;;;2.28;1.42;;;;;;;19.52;30.84;101985.72;4213332;28;20082;-51
2022/01/23 03:00:14;;;;;;;1.97;1.50;;;;;;;19.52;30.82;101985.72;4230210;28;20096;-51
2022/01/23 03:02:36;;;;;;;1.95;1.60;;;;;;;19.54;31.18;101986.31;4230000;28;20040;-47
2022/01/23 03:04:47;;;;;;;1.67;1.30;;;;;;;19.54;30.73;101978.00;4230377;28;20551;-46
2022/01/23 03:11:05;;;;;;;2.45;1.45;;;;;;;19.55;31.07;101974.13;4230980;28;20069;-47
2022/01/23 03:31:22;;;;;;;3.00;1.77;;;;;;;19.55;30.85;101961.06;4231696;28;20112;-47
2022/01/23 03:33:23;;;;;;;2.45;1.80;;;;;;;19.51;30.99;101936.81;4229680;28;20043;-48
2022/01/23 03:35:24;;;;;;;2.40;1.70;;;;;;;19.53;30.51;101948.53;4212487;28;20044;-44
2022/01/23 03:37:26;;;;;;;2.08;1.60;;;;;;;19.55;30.67;101963.00;4230297;28;20032;-46
2022/01/23 03:39:27;;;;;;;2.53;1.73;;;;;;;19.55;30.97;101957.47;4230053;28;20040;-47
2022/01/23 03:41:28;;;;;;;2.58;1.98;;;;;;;19.55;30.95;101951.91;4229778;28;20104;-47
2022/01/23 03:43:33;;;;;;;1.90;1.58;;;;;;;19.54;30.67;101956.63;4231393;28;20031;-48
2022/01/23 03:50:14;;;;;;;1.95;1.30;;;;;;;19.55;31.01;101941.63;4233948;28;20432;-51
2022/01/23 03:52:16;;;;;;;3.20;1.90;;;;;;;19.53;30.90;101943.00;4233430;28;20077;-50
2022/01/23 03:54:24;;;;;;;4.22;1.90;;;;;;;19.55;30.89;101943.56;4233664;28;20036;-46
2022/01/23 03:56:30;;;;;;;2.13;1.58;;;;;;;19.55;30.99;101940.78;4233939;28;20047;-47
2022/01/23 03:58:32;;;;;;;3.35;1.58;;;;;;;19.53;30.91;101938.28;4233477;28;20039;-46
2022/01/23 04:00:35;;;;;;;3.55;1.80;;;;;;;19.49;30.92;101936.25;4214756;28;20458;-46
2022/01/23 04:02:36;;;;;;;3.15;2.20;;;;;;;19.50;30.81;101949.03;4233454;28;20093;-49
2022/01/23 04:04:42;;;;;;;3.05;1.70;;;;;;;19.51;30.94;101942.38;4233081;28;20047;-46
2022/01/23 04:06:46;;;;;;;2.00;1.48;;;;;;;19.50;30.99;101932.38;4232744;28;20028;-46
2022/01/23 04:08:49;;;;;;;2.53;1.83;;;;;;;19.48;30.73;101929.03;4232793;28;20056;-48
2022/01/23 04:10:50;;;;;;;1.98;1.70;;;;;;;19.50;30.83;101932.38;4233172;28;20113;-48
2022/01/23 04:31:46;;;;;;;3.22;1.80;;;;;;;19.46;31.44;101920.06;4233328;28;20112;-48
2022/01/23 04:33:53;;;;;;;2.80;1.67;;;;;;;19.46;31.08;101908.97;4232275;28;20048;-46
2022/01/23 05:05:42;;;;;;;2.25;1.50;;;;;;;19.35;31.65;101898.78;4232788;28;20100;-49
2022/01/23 05:07:46;;;;;;;2.80;1.88;;;;;;;19.34;31.63;101888.78;4232240;28;20092;-48
2022/01/23 05:09:49;;;;;;;2.17;1.50;;;;;;;19.32;31.49;101891.78;4232277;28;20043;-45
2022/01/23 05:11:55;;;;;;;2.15;1.70;;;;;;;19.32;31.57;101879.84;4231964;28;20036;-46
2022/01/23 05:14:02;;;;;;;2.88;1.70;;;;;;;19.32;31.46;101888.16;4231799;28;20105;-47
2022/01/23 05:16:04;;;;;;;3.92;1.98;;;;;;;19.32;31.47;101882.59;4231995;28;20043;-47
2022/01/23 05:18:05;;;;;;;2.83;1.77;;;;;;;19.31;31.38;101879.00;4232665;28;20073;-46
2022/01/23 05:20:07;;;;;;;4.25;2.08;;;;;;;19.29;31.64;101882.03;4231795;28;20096;-49
2022/01/23 05:22:38;;;;;;;2.70;1.80;;;;;;;19.29;31.74;101882.03;4232352;28;20048;-49
2022/01/23 05:24:42;;;;;;;2.08;1.67;;;;;;;19.29;31.42;101876.47;4231789;28;20097;-47
2022/01/23 05:26:45;;;;;;;2.83;1.85;;;;;;;19.27;31.74;101878.63;4231698;28;20043;-49
2022/01/23 05:28:47;;;;;;;2.83;1.92;;;;;;;19.28;31.70;101874.75;4230898;28;20043;-49
2022/01/23 05:30:48;;;;;;;2.17;1.63;;;;;;;19.27;31.32;101867.53;4231360;28;20035;-47
2022/01/23 05:32:51;;;;;;;3.55;1.85;;;;;;;19.26;31.74;101870.56;4231776;28;20040;-50
2022/01/23 05:34:52;;;;;;;2.80;1.83;;;;;;;19.22;31.31;101859.13;4231778;28;20093;-51
2022/01/23 05:36:54;;;;;;;2.47;2.03;;;;;;;19.21;31.45;101857.44;4230920;28;20036;-49
2022/01/23 05:38:56;;;;;;;1.77;1.55;;;;;;;19.20;31.39;101854.91;4230928;28;20039;-48
2022/01/23 05:40:58;;;;;;;2.60;2.00;;;;;;;19.23;31.52;101848.84;4232024;28;20084;-51
2022/01/23 05:43:02;;;;;;;2.00;1.75;;;;;;;19.23;31.77;101859.94;4231686;28;20047;-49
2022/01/23 05:45:05;;;;;;;2.40;1.70;;;;;;;19.22;31.74;101849.94;4232260;28;20084;-47
2022/01/23 05:47:08;;;;;;;2.53;1.70;;;;;;;19.22;31.37;101849.94;4231069;28;20043;-44
2022/01/23 05:49:09;;;;;;;3.42;1.85;;;;;;;19.19;31.83;101847.66;4231708;28;20035;-47
2022/01/23 05:51:12;;;;;;;3.65;2.08;;;;;;;19.19;31.76;101847.66;4232000;28;20028;-48
2022/01/23 05:53:13;;;;;;;2.63;1.40;;;;;;;19.13;31.75;101834.78;4231251;28;20036;-47
2022/01/23 05:55:17;;;;;;;2.80;2.00;;;;;;;19.14;31.56;101840.06;4231953;28;20035;-48
2022/01/23 05:57:22;;;;;;;2.30;1.60;;;;;;;19.15;31.75;101846.47;4231909;28;20039;-46
2022/01/23 05:59:23;;;;;;;2.60;1.90;;;;;;;19.15;31.57;101846.47;4231244;28;20128;-46
2022/01/23 06:01:24;;;;;;;2.30;1.83;;;;;;;19.13;31.59;101832.84;4231292;28;20047;-45
2022/01/23 06:03:26;;;;;;;2.25;1.65;;;;;;;19.13;31.54;101832.84;4231720;28;20039;-45
2022/01/23 06:05:27;;;;;;;2.47;1.80;;;;;;;19.11;31.76;101832.28;4230936;28;20492;-44
2022/01/23 06:07:29;;;;;;;2.50;1.88;;;;;;;19.13;31.29;101829.25;4230706;28;20100;-49
2022/01/23 06:09:30;;;;;;;2.10;1.70;;;;;;;19.14;31.26;101822.59;4230944;28;20028;-45
2022/01/23 06:11:31;;;;;;;3.40;2.13;;;;;;;19.14;31.40;101822.59;4230874;28;20104;-49
2022/01/23 06:13:33;;;;;;;2.63;1.77;;;;;;;19.13;31.13;101810.66;4230315;28;20036;-49
2022/01/23 06:15:34;;;;;;;3.10;1.63;;;;;;;19.14;31.28;101801.22;4230828;28;20047;-46
2022/01/23 06:17:37;;;;;;;3.05;2.00;;;;;;;19.15;31.11;101797.41;4231697;28;20031;-49
2022/01/23 06:19:39;;;;;;;3.50;2.08;;;;;;;19.17;31.19;101800.75;4230456;28;20504;-46
2022/01/23 06:21:46;;;;;;;2.92;1.73;;;;;;;19.18;31.31;101790.50;4230834;28;20393;-46
2022/01/23 06:23:55;;;;;;;3.03;1.67;;;;;;;19.19;30.98;101793.00;4230811;28;20039;-47
2022/01/23 06:25:57;;;;;;;1.98;1.75;;;;;;;19.21;31.01;101790.84;4231313;28;20088;-47
2022/01/23 06:28:00;;;;;;;2.95;1.75;;;;;;;19.16;30.64;101781.59;4230432;28;20179;-48
2022/01/23 06:30:02;;;;;;;1.88;1.55;;;;;;;19.24;30.85;101790.34;4230877;28;20039;-45
2022/01/23 06:32:03;;;;;;;2.47;1.70;;;;;;;19.24;30.52;101782.03;4230615;28;20040;-47
2022/01/23 06:34:09;;;;;;;3.40;1.77;;;;;;;19.25;30.79;101785.63;4230264;28;20043;-45
2022/01/23 06:36:11;;;;;;;2.28;1.83;;;;;;;19.26;30.64;101782.59;4231602;28;20036;-47
2022/01/23 06:38:12;;;;;;;2.47;1.70;;;;;;;19.26;30.67;101774.28;4230232;28;20035;-46
2022/01/23 06:40:14;;;;;;;2.63;1.85;;;;;;;19.27;30.27;101778.72;4230766;28;20080;-45
2022/01/23 06:42:15;;;;;;;2.58;2.00;;;;;;;19.27;30.35;101773.19;4230422;28;20456;-47
2022/01/23 06:44:17;;;;;;;2.58;1.90;;;;;;;19.29;30.71;101776.56;4230238;28;20068;-47
2022/01/23 06:46:18;;;;;;;3.15;2.00;;;;;;;19.27;30.58;101756.53;4229906;28;20047;-45
2022/01/23 06:48:20;;;;;;;2.55;1.85;;;;;;;19.28;30.66;101758.22;4229976;28;20043;-46
2022/01/23 06:50:21;;;;;;;2.60;1.88;;;;;;;19.28;30.46;101752.66;4230062;28;20172;-46
2022/01/23 06:52:22;;;;;;;2.35;1.85;;;;;;;19.29;30.26;101754.38;4230174;28;20508;-45
2022/01/23 06:54:24;;;;;;;2.42;1.85;;;;;;;19.27;30.29;101759.31;4229595;28;20039;-47
2022/01/23 06:56:25;;;;;;;2.67;1.67;;;;;;;19.26;30.34;101751.25;4230353;28;20084;-45
2022/01/23 06:58:27;;;;;;;2.00;1.80;;;;;;;19.29;30.27;101759.91;4229826;28;20047;-49
2022/01/23 07:00:28;;;;;;;3.08;2.05;;;;;;;19.29;30.64;101759.06;4229737;28;20040;-49
2022/01/23 07:02:29;;;;;;;2.45;1.80;;;;;;;19.28;30.48;101758.22;4230238;28;20080;-46
2022/01/23 07:04:34;;;;;;;2.58;1.67;;;;;;;19.26;30.21;101754.03;4229330;28;20105;-46
2022/01/23 07:06:35;;;;;;;2.63;1.95;;;;;;;19.29;30.52;101753.53;4230272;28;20043;-49
2022/01/23 07:08:37;;;;;;;2.50;1.70;;;;;;;19.28;30.42;101752.66;4229552;28;20092;-46
2022/01/23 07:10:38;;;;;;;2.72;1.90;;;;;;;19.28;30.35;101747.09;4229815;28;20036;-45
2022/01/23 07:12:39;;;;;;;2.35;1.58;;;;;;;19.26;30.13;101754.84;4230128;28;20507;-44
2022/01/23 07:14:41;;;;;;;3.10;2.00;;;;;;;19.27;30.40;101752.91;4229755;28;20478;-46
2022/01/23 07:16:42;;;;;;;2.58;1.67;;;;;;;19.27;30.48;101750.16;4230375;28;20035;-48
2022/01/23 07:18:43;;;;;;;3.33;1.98;;;;;;;19.26;30.37;101746.53;4227710;28;20040;-49
2022/01/23 07:20:46;;;;;;;2.85;1.95;;;;;;;19.26;30.16;101740.97;4230334;28;20433;-45
2022/01/23 07:22:47;;;;;;;2.60;1.42;;;;;;;19.25;30.28;101747.63;4229138;28;20036;-47
2022/01/23 07:24:48;;;;;;;2.40;1.73;;;;;;;19.25;30.32;101736.53;4230123;28;20100;-45
2022/01/23 07:26:50;;;;;;;3.38;1.67;;;;;;;19.24;30.44;101734.84;4229279;28;20070;-47
2022/01/23 07:28:55;;;;;;;2.25;1.70;;;;;;;19.24;30.23;101726.53;4229662;28;20092;-47
2022/01/23 07:31:00;;;;;;;2.75;1.55;;;;;;;19.23;30.56;101730.38;4229001;28;20092;-44
2022/01/23 07:33:04;;;;;;;3.35;2.00;;;;;;;19.23;30.37;101727.59;4229743;28;20475;-47
2022/01/23 07:35:05;;;;;;;3.08;1.80;;;;;;;19.23;30.65;101727.59;4228904;28;20036;-46
2022/01/23 07:37:07;;;;;;;2.50;1.70;;;;;;;19.22;30.39;101725.09;4230044;28;20028;-47
2022/01/23 07:39:08;;;;;;;3.15;1.90;;;;;;;19.22;30.36;101731.47;4228206;28;20035;-48
2022/01/23 07:41:10;;;;;;;1.83;1.48;;;;;;;19.22;30.51;101731.47;4159825;28;1968392;-49
2022/01/23 07:43:21;;;;;;;2.92;1.88;;;;;;;19.21;30.60;101729.78;4230009;28;20052;-45
2022/01/23 07:45:22;;;;;;;2.42;1.65;;;;;;;19.18;30.56;101730.28;4229866;28;20113;-46
2022/01/23 07:47:24;;;;;;;1.80;1.60;;;;;;;19.22;30.59;101731.47;4230756;28;20096;-47
2022/01/23 07:49:25;;;;;;;2.25;1.60;;;;;;;19.20;30.79;101728.13;4230364;28;20044;-47
2022/01/23 07:51:26;;;;;;;2.08;1.38;;;;;;;19.19;30.85;101725.56;4230867;28;20031;-47
2022/01/23 07:53:28;;;;;;;1.88;1.58;;;;;;;19.19;30.70;101728.34;4230462;28;20425;-49
2022/01/23 07:55:30;;;;;;;2.78;1.58;;;;;;;19.14;30.68;101715.22;4230079;28;20096;-45
2022/01/23 07:57:32;;;;;;;2.63;1.52;;;;;;;19.12;30.72;101711.88;4230676;28;20445;-45
2022/01/23 07:59:34;;;;;;;2.00;1.60;;;;;;;19.18;30.55;101712.81;4229237;28;20393;-45
2022/01/23 08:01:39;;;;;;;2.55;1.70;;;;;;;19.17;30.77;101711.97;4230603;28;20040;-49
2022/01/23 08:03:40;;;;;;;2.10;1.55;;;;;;;19.12;30.64;101691.63;4229694;28;20044;-50
2022/01/23 08:05:48;;;;;;;2.28;1.67;;;;;;;19.15;30.95;101697.50;4230443;28;20036;-46
2022/01/23 08:07:49;;;;;;;2.88;1.60;;;;;;;19.14;30.94;101698.59;4229769;28;20126;-48
2022/01/23 08:09:50;;;;;;;2.92;1.65;;;;;;;19.14;30.79;101704.13;4229812;28;20109;-45
2022/01/23 08:11:55;;;;;;;2.40;1.63;;;;;;;19.12;30.71;101698.00;4230192;28;20036;-45
2022/01/23 08:13:56;;;;;;;3.37;1.67;;;;;;;19.12;30.88;101689.69;4230041;28;20065;-45
2022/01/23 08:15:57;;;;;;;3.05;2.25;;;;;;;19.11;31.01;101685.22;4230139;28;20368;-44
2022/01/23 08:18:01;;;;;;;2.83;1.63;;;;;;;19.11;30.88;101676.06;4229788;28;20069;-44
2022/01/23 08:20:04;;;;;;;2.72;1.90;;;;;;;19.10;30.80;101677.97;4229154;28;20368;-48
2022/01/23 08:22:05;;;;;;;2.20;1.70;;;;;;;19.09;31.12;101681.84;4229560;28;20089;-45
2022/01/23 08:24:11;;;;;;;1.90;1.60;;;;;;;19.02;30.90;101675.63;4229341;28;20435;-48
2022/01/23 08:26:12;;;;;;;2.88;1.60;;;;;;;19.07;30.95;101677.66;4230177;28;20048;-47
2022/01/23 08:28:14;;;;;;;2.25;1.60;;;;;;;19.05;31.31;101675.97;4230245;28;20085;-50
2022/01/23 08:30:16;;;;;;;2.40;1.70;;;;;;;19.05;31.19;101677.88;4231667;28;20666;-47
2022/01/23 08:32:20;;;;;;;3.10;1.77;;;;;;;19.03;31.21;101675.38;4232786;28;20031;-46
2022/01/23 08:34:21;;;;;;;2.93;1.63;;;;;;;19.03;31.31;101677.31;4214768;28;20036;-44
2022/01/23 08:36:23;;;;;;;2.03;1.35;;;;;;;19.03;31.04;101666.22;4232461;28;20035;-46
2022/01/23 08:38:25;;;;;;;3.00;1.55;;;;;;;18.98;31.48;101657.81;4233231;28;20435;-44
2022/01/23 08:42:43;;;;;;;2.75;1.65;;;;;;;19.02;31.42;101667.31;4233842;28;20092;-46
2022/01/23 08:44:47;;;;;;;2.03;1.60;;;;;;;18.99;31.12;101663.09;4220063;27;20437;-45
2022/01/23 08:46:49;;;;;;;2.15;1.70;;;;;;;19.00;31.18;101661.16;4216232;28;20040;-47
2022/01/23 08:48:50;;;;;;;2.25;1.77;;;;;;;18.96;31.60;101657.22;4215059;28;20048;-49
2022/01/23 08:50:51;;;;;;;2.15;1.60;;;;;;;18.96;31.65;101648.88;4215329;28;20036;-45
2022/01/23 08:52:53;;;;;;;2.45;1.75;;;;;;;18.93;31.42;101644.69;4216185;28;20463;-45
2022/01/23 08:54:57;;;;;;;2.63;1.85;;;;;;;18.87;31.40;101634.59;4215140;28;20036;-45
2022/01/23 08:56:58;;;;;;;3.72;1.73;;;;;;;18.92;31.19;101642.16;4215690;28;20441;-46
2022/01/23 08:59:00;;;;;;;3.00;1.80;;;;;;;18.89;31.55;101637.13;4214760;28;20422;-47
2022/01/23 09:01:01;;;;;;;2.03;1.50;;;;;;;18.91;31.32;101640.47;4215876;28;20066;-46
2022/01/23 09:03:03;;;;;;;2.60;1.63;;;;;;;18.89;31.55;101632.41;4215883;28;20032;-45
2022/01/23 09:05:05;;;;;;;3.35;1.63;;;;;;;18.88;31.68;101629.91;4215897;28;20040;-46
2022/01/23 09:07:07;;;;;;;2.38;1.77;;;;;;;18.86;31.30;101630.13;4215228;28;20039;-44
2022/01/23 09:09:15;;;;;;;1.83;1.60;;;;;;;18.87;31.70;101628.19;4215469;28;20486;-47
2022/01/23 09:13:51;;;;;;;2.10;1.52;;;;;;;18.82;31.33;101614.25;4216006;28;20532;-45
2022/01/23 09:15:52;;;;;;;2.55;1.67;;;;;;;18.84;31.38;101618.47;4215523;28;20250;-46
2022/01/23 09:17:53;;;;;;;1.83;1.42;;;;;;;18.82;31.42;101608.69;4214784;28;20101;-44
2022/01/23 09:19:55;;;;;;;2.45;1.65;;;;;;;18.82;31.74;101614.25;4215326;28;20040;-47
2022/01/23 09:21:57;;;;;;;2.60;1.42;;;;;;;18.81;31.50;101621.72;4214591;28;20101;-49
2022/01/23 09:23:58;;;;;;;2.67;1.75;;;;;;;18.79;31.67;101610.91;4215533;28;20083;-48
2022/01/23 09:26:08;;;;;;;2.75;1.75;;;;;;;18.78;31.45;101612.00;4214721;28;20497;-49
2022/01/23 09:28:13;;;;;;;2.22;1.60;;;;;;;18.76;31.43;101605.00;4215517;28;20105;-46
2022/01/23 09:30:20;;;;;;;2.58;1.70;;;;;;;18.70;31.70;101590.22;4214500;28;20036;-45
2022/01/23 09:32:23;;;;;;;3.08;1.45;;;;;;;18.76;31.37;101603.06;4214716;28;20032;-45
2022/01/23 09:34:28;;;;;;;2.75;1.60;;;;;;;18.75;31.46;101598.63;4215265;28;20475;-48
2022/01/23 09:36:29;;;;;;;1.52;1.23;;;;;;;18.75;31.81;101598.63;4215273;28;20044;-48
2022/01/23 09:38:31;;;;;;;1.85;1.58;;;;;;;18.74;31.55;101602.50;4214704;28;20032;-49
2022/01/23 09:40:34;;;;;;;2.40;1.70;;;;;;;18.75;31.70;101598.63;4215005;28;20117;-49
2022/01/23 09:42:43;;;;;;;1.90;1.52;;;;;;;18.71;31.87;101589.13;4214345;28;20036;-47
2022/01/23 09:44:50;;;;;;;2.70;1.45;;;;;;;18.75;31.59;101592.25;4214573;28;20437;-47
2022/01/23 09:46:53;;;;;;;3.50;1.67;;;;;;;18.74;31.45;101585.88;4215468;28;20032;-46
2022/01/23 09:48:58;;;;;;;2.33;1.45;;;;;;;18.76;31.46;101589.22;4213731;28;20032;-45
2022/01/23 09:51:01;;;;;;;2.10;1.60;;;;;;;18.77;31.49;101585.34;4214167;28;20438;-43
2022/01/23 09:53:03;;;;;;;2.72;1.88;;;;;;;18.77;31.50;101585.34;4214410;28;20100;-44
2022/01/23 09:55:10;;;;;;;2.42;1.92;;;;;;;18.79;31.41;101583.16;4214332;28;20043;-43
2022/01/23 09:57:12;;;;;;;1.77;1.48;;;;;;;18.79;31.42;101572.09;4215103;28;20093;-46
2022/01/23 09:59:15;;;;;;;2.15;1.88;;;;;;;18.83;31.36;101574.34;4215026;28;20040;-47
2022/01/23 10:01:17;;;;;;;2.45;1.67;;;;;;;18.85;31.18;101578.53;4214517;28;20413;-49
2022/01/23 10:03:19;;;;;;;3.38;1.83;;;;;;;18.86;31.24;101565.53;4215063;28;20352;-47
2022/01/23 10:05:21;;;;;;;3.08;1.90;;;;;;;18.88;30.86;101568.91;4214926;28;20044;-45
2022/01/23 10:07:23;;;;;;;2.40;1.85;;;;;;;18.87;30.78;101567.19;4215083;28;20081;-45
2022/01/23 10:09:26;;;;;;;2.70;2.00;;;;;;;18.89;30.80;101565.88;4195925;28;20078;-46
2022/01/23 10:11:35;;;;;;;1.75;1.60;;;;;;;18.92;30.87;101570.03;4213640;28;20138;-45
2022/01/23 10:13:36;;;;;;;2.97;1.80;;;;;;;18.88;31.04;101564.19;4214085;28;20460;-45
2022/01/23 10:15:38;;;;;;;2.40;1.77;;;;;;;18.92;30.91;101561.72;4214611;28;20430;-47
2022/01/23 10:17:40;;;;;;;2.80;1.63;;;;;;;18.88;30.67;101553.09;4214885;28;20542;-46
2022/01/23 10:19:41;;;;;;;2.75;1.80;;;;;;;18.94;30.75;101563.16;4213797;28;20471;-44
2022/01/23 10:21:45;;;;;;;2.05;1.50;;;;;;;18.95;30.67;101558.47;4214636;28;20032;-46
2022/01/23 10:23:46;;;;;;;3.30;1.80;;;;;;;18.96;30.51;101560.13;4214610;28;20117;-45
2022/01/23 10:25:51;;;;;;;2.58;1.65;;;;;;;18.94;30.63;101556.78;4214630;28;20036;-48
2022/01/23 10:27:56;;;;;;;;;;;;;;;18.93;30.52;101555.94;4214297;28;20109;-49
2022/01/23 10:29:57;;;;;;;2.58;1.50;;;;;;;18.99;30.26;101560.47;4213119;28;19970;-47
2022/01/23 10:32:21;;;;;;;1.98;1.70;;;;;;;18.99;30.79;101559.63;4214407;28;20040;-51
2022/01/23 10:34:58;;;;;;;2.53;1.88;;;;;;;18.97;30.48;101556.28;4214586;28;20027;-46
2022/01/23 10:36:59;;;;;;;1.88;1.60;;;;;;;18.99;30.68;101556.88;4214393;28;20476;-47
2022/01/23 10:39:04;;;;;;;3.10;1.75;;;;;;;19.00;30.64;101566.84;4213206;28;20175;-46
2022/01/23 10:41:28;;;;;;;3.40;1.67;;;;;;;18.98;30.55;101560.75;4214130;28;20040;-48
2022/01/23 10:50:14;;;;;;;3.00;1.70;;;;;;;18.96;30.78;101560.97;4214286;28;20423;-48
2022/01/23 10:52:26;;;;;;;2.00;1.65;;;;;;;18.95;30.40;101556.53;4213984;28;20036;-48
2022/01/23 10:54:27;;;;;;;2.05;1.60;;;;;;;18.93;30.20;101550.41;4214266;28;20082;-45
2022/01/23 10:56:32;;;;;;;2.05;1.60;;;;;;;18.95;30.40;101552.91;4213474;28;20475;-48
2022/01/23 10:58:33;;;;;;;3.03;2.10;;;;;;;18.94;30.41;101559.56;4213549;28;20044;-46
2022/01/23 11:00:37;;;;;;;2.53;1.70;;;;;;;18.94;30.73;101562.34;4213278;28;20028;-49
2022/01/23 11:02:41;;;;;;;2.23;1.70;;;;;;;18.95;30.38;101575.09;4214028;28;20044;-47
2022/01/23 11:04:52;;;;;;;3.13;2.15;;;;;;;18.94;30.63;101581.75;4214114;28;20044;-47
2022/01/23 11:07:03;;;;;;;2.67;1.80;;;;;;;18.93;30.64;101577.28;4213243;28;20052;-46
2022/01/23 11:09:09;;;;;;;3.03;1.80;;;;;;;18.94;30.29;101578.97;4213778;28;20040;-47
2022/01/23 11:11:13;;;;;;;2.40;1.85;;;;;;;18.94;30.65;101584.53;4214035;28;20036;-51
2022/01/23 11:18:03;;;;;;;2.08;1.65;;;;;;;18.92;30.91;101572.81;4214449;28;20101;-46
2022/01/23 11:20:04;;;;;;;2.22;1.40;;;;;;;18.91;30.48;101571.16;4213554;28;20036;-45
2022/01/23 11:22:06;;;;;;;2.50;1.30;;;;;;;18.91;30.76;101573.91;4214200;28;20081;-48
2022/01/23 11:24:08;;;;;;;2.83;1.98;;;;;;;18.84;30.60;101565.78;4214045;28;20044;-47
2022/01/23 11:26:13;;;;;;;2.50;1.80;;;;;;;18.88;30.61;101575.28;4213383;28;20036;-46
2022/01/23 11:28:15;;;;;;;2.85;1.67;;;;;;;18.89;30.74;101574.19;4214058;28;20028;-47
2022/01/23 11:30:17;;;;;;;3.15;1.98;;;;;;;18.87;30.60;101569.97;4213677;28;20414;-47
2022/01/23 11:32:21;;;;;;;2.00;1.80;;;;;;;18.87;31.02;101578.28;4212971;28;20040;-49
2022/01/23 11:34:23;;;;;;;3.47;1.60;;;;;;;18.66;30.73;101555.75;4213905;28;20048;-46
2022/01/23 11:36:25;;;;;;;2.63;1.88;;;;;;;18.86;30.91;101582.16;4213313;28;20044;-48
2022/01/23 11:38:28;;;;;;;1.92;1.55;;;;;;;18.85;30.94;101586.03;4213448;28;20449;-47
2022/01/23 11:40:41;;;;;;;2.85;2.03;;;;;;;18.84;30.70;101592.69;4212397;28;20101;-47
2022/01/23 11:54:49;;;;;;;2.67;1.83;;;;;;;18.79;30.95;101577.63;4214403;28;20109;-49
2022/01/23 11:56:57;;;;;;;1.80;1.40;;;;;;;18.77;31.35;101584.50;4213650;28;20071;-48
2022/01/23 11:59:21;;;;;;;3.33;1.95;;;;;;;18.76;31.23;101593.91;4212366;28;20078;-46
2022/01/23 12:01:26;;;;;;;2.63;1.65;;;;;;;18.77;31.19;101590.03;4213525;28;20074;-46
2022/01/23 12:03:28;;;;;;;1.90;1.70;;;;;;;18.75;31.47;101582.00;4212969;28;20036;-46
2022/01/23 12:05:32;;;;;;;2.00;1.67;;;;;;;18.74;31.39;101585.03;4214911;28;20036;-49
2022/01/23 12:07:40;;;;;;;1.90;1.38;;;;;;;18.73;31.54;101584.16;4216075;28;20073;-49
2022/01/23 12:10:01;;;;;;;2.65;1.70;;;;;;;18.72;31.29;101588.03;4215536;28;20044;-45
2022/01/23 12:12:31;;;;;;;2.03;1.55;;;;;;;18.71;31.29;101591.06;4216675;28;20441;-48
2022/01/23 12:16:53;;;;;;;2.47;1.95;;;;;;;18.69;31.31;101583.00;4217283;28;20117;-44
2022/01/23 12:19:17;;;;;;;2.92;1.95;;;;;;;18.66;31.58;101583.47;4216391;28;20121;-46
2022/01/23 12:21:31;;;;;;;2.63;1.95;;;;;;;18.68;31.29;101586.81;4216644;28;20475;-49
2022/01/23 12:23:58;;;;;;;2.47;1.52;;;;;;;18.64;31.42;101585.63;4216657;28;20036;-47
2022/01/23 12:26:07;;;;;;;3.75;1.80;;;;;;;18.63;31.34;101583.94;4214305;28;20040;-47
2022/01/23 12:28:10;;;;;;;3.25;2.00;;;;;;;18.63;31.47;101572.88;4215645;28;20044;-46
2022/01/23 12:30:26;;;;;;;1.60;1.40;;;;;;;18.61;31.81;101561.19;4215228;28;20119;-47
2022/01/23 12:32:30;;;;;;;2.35;1.50;;;;;;;18.57;31.63;101557.25;4216531;28;20059;-45
2022/01/23 12:34:49;;;;;;;2.95;1.88;;;;;;;18.58;31.43;101564.47;4215830;28;20479;-48
2022/01/23 12:36:55;;;;;;;2.15;1.65;;;;;;;18.58;31.83;101553.38;4216179;28;20048;-45
2022/01/23 12:39:15;;;;;;;2.03;1.58;;;;;;;18.58;32.00;101555.31;4215957;28;20580;-47
2022/01/23 12:41:30;;;;;;;3.35;1.95;;;;;;;18.55;31.66;101548.31;4198246;28;20426;-49